FPO7SN LFPG-EIDW
Flight info
| Callsign | FPO7SN |
|---|---|
| Flight time | 1h 15m |
| Altitude | 30000 |
| Route | ATREX DCT VESAN DCT RATUK/N0458F380 DCT SOVAT L613 SANDY L722 ICTAM T421 DIDZA DCT CESQA DCT BIBPE DCT OKTAD DCT MEDOG DCT KRAGY DCT PEMOB/N0408F240 M17 VATRY VATRY4L |
| Aircraft | B738/M-SDE2E3FGHIRWXY/LB1 |
Departure
| Time | 2026-05-06 10:06 |
|---|---|
| Airport | Charles de Gaulle International Airport (LFPG) |
Arrival
| Time | 2026-05-06 11:22 |
|---|---|
| Airport | Dublin Airport (EIDW) |
| Time | Latitude | Longitude | Altitude | Speed | Heading |
|---|---|---|---|---|---|
| 2026-05-06 09:33 | 49.01323 | 2.50223 | 349 ft | 0 kts | 175° |
| 2026-05-06 09:55 | 49.01328 | 2.50222 | 359 ft | 4 kts | 175° |
| 2026-05-06 09:56 | 49.01355 | 2.50219 | 354 ft | 4 kts | 175° |
| 2026-05-06 09:56 | 49.01381 | 2.50215 | 358 ft | 4 kts | 166° |
| 2026-05-06 09:56 | 49.01405 | 2.50199 | 355 ft | 4 kts | 138° |
| 2026-05-06 09:56 | 49.01417 | 2.50170 | 355 ft | 3 kts | 88° |
| 2026-05-06 09:57 | 49.01417 | 2.50166 | 355 ft | 1 kts | 86° |
| 2026-05-06 09:59 | 49.01417 | 2.50185 | 354 ft | 9 kts | 87° |
| 2026-05-06 09:59 | 49.01423 | 2.50333 | 349 ft | 16 kts | 86° |
| 2026-05-06 09:59 | 49.01431 | 2.50528 | 356 ft | 24 kts | 85° |
| 2026-05-06 10:00 | 49.01447 | 2.50799 | 349 ft | 26 kts | 85° |
| 2026-05-06 10:00 | 49.01458 | 2.50979 | 359 ft | 25 kts | 84° |
| 2026-05-06 10:00 | 49.01478 | 2.51307 | 349 ft | 23 kts | 85° |
| 2026-05-06 10:00 | 49.01489 | 2.51544 | 356 ft | 22 kts | 86° |
| 2026-05-06 10:01 | 49.01501 | 2.51783 | 357 ft | 22 kts | 86° |
| 2026-05-06 10:01 | 49.01510 | 2.51938 | 355 ft | 22 kts | 84° |
| 2026-05-06 10:01 | 49.01523 | 2.52162 | 357 ft | 21 kts | 84° |
| 2026-05-06 10:01 | 49.01536 | 2.52381 | 353 ft | 20 kts | 85° |
| 2026-05-06 10:02 | 49.01555 | 2.52589 | 353 ft | 20 kts | 64° |
| 2026-05-06 10:02 | 49.01658 | 2.52717 | 356 ft | 20 kts | 34° |
| 2026-05-06 10:02 | 49.01791 | 2.52761 | 353 ft | 15 kts | 357° |
| 2026-05-06 10:02 | 49.01799 | 2.52760 | 354 ft | 0 kts | 355° |
| 2026-05-06 10:03 | 49.01815 | 2.52746 | 363 ft | 7 kts | 311° |
| 2026-05-06 10:03 | 49.01817 | 2.52579 | 357 ft | 26 kts | 264° |
| 2026-05-06 10:03 | 49.01799 | 2.52296 | 354 ft | 26 kts | 264° |
| 2026-05-06 10:03 | 49.01863 | 2.52059 | 357 ft | 24 kts | 289° |
| 2026-05-06 10:04 | 49.01864 | 2.51810 | 356 ft | 23 kts | 265° |
| 2026-05-06 10:04 | 49.01852 | 2.51572 | 354 ft | 22 kts | 266° |
| 2026-05-06 10:04 | 49.01852 | 2.51341 | 354 ft | 22 kts | 292° |
| 2026-05-06 10:04 | 49.01978 | 2.51268 | 358 ft | 21 kts | 23° |
| 2026-05-06 10:05 | 49.02067 | 2.51438 | 358 ft | 20 kts | 75° |
| 2026-05-06 10:05 | 49.02072 | 2.51484 | 354 ft | 0 kts | 84° |
| 2026-05-06 10:05 | 49.02074 | 2.51512 | 355 ft | 15 kts | 84° |
| 2026-05-06 10:05 | 49.02106 | 2.52089 | 361 ft | 93 kts | 85° |
| 2026-05-06 10:06 | 49.02180 | 2.53412 | 355 ft | 156 kts | 86° |
| 2026-05-06 10:06 | 49.02239 | 2.55217 | 817 ft | 174 kts | 83° |
| 2026-05-06 10:06 | 49.02299 | 2.57156 | 1467 ft | 194 kts | 82° |
| 2026-05-06 10:06 | 49.02434 | 2.59266 | 2116 ft | 201 kts | 80° |
| 2026-05-06 10:07 | 49.02572 | 2.61392 | 2846 ft | 203 kts | 80° |
| 2026-05-06 10:07 | 49.02713 | 2.63605 | 3349 ft | 225 kts | 80° |
| 2026-05-06 10:07 | 49.02887 | 2.66144 | 3792 ft | 249 kts | 80° |
| 2026-05-06 10:07 | 49.03025 | 2.68793 | 4801 ft | 253 kts | 83° |
| 2026-05-06 10:08 | 49.03166 | 2.71552 | 5515 ft | 266 kts | 82° |
| 2026-05-06 10:08 | 49.03412 | 2.74305 | 6555 ft | 263 kts | 65° |
| 2026-05-06 10:08 | 49.04534 | 2.76454 | 7341 ft | 263 kts | 30° |
| 2026-05-06 10:08 | 49.06260 | 2.77221 | 8061 ft | 269 kts | 358° |
| 2026-05-06 10:09 | 49.08131 | 2.76780 | 8790 ft | 277 kts | 343° |
| 2026-05-06 10:09 | 49.09980 | 2.75828 | 9526 ft | 284 kts | 339° |
| 2026-05-06 10:09 | 49.11840 | 2.74756 | 10223 ft | 288 kts | 338° |
| 2026-05-06 10:09 | 49.13717 | 2.73657 | 11003 ft | 291 kts | 338° |
| 2026-05-06 10:10 | 49.15678 | 2.72514 | 11274 ft | 314 kts | 339° |
| 2026-05-06 10:10 | 49.17801 | 2.71291 | 11453 ft | 337 kts | 339° |
| 2026-05-06 10:10 | 49.20063 | 2.70001 | 11762 ft | 354 kts | 339° |
| 2026-05-06 10:10 | 49.22395 | 2.68680 | 12390 ft | 360 kts | 339° |
| 2026-05-06 10:11 | 49.24747 | 2.67355 | 13197 ft | 361 kts | 339° |
| 2026-05-06 10:11 | 49.27112 | 2.66025 | 13890 ft | 365 kts | 339° |
| 2026-05-06 10:11 | 49.29511 | 2.64678 | 14463 ft | 370 kts | 339° |
| 2026-05-06 10:11 | 49.31946 | 2.63310 | 15079 ft | 375 kts | 339° |
| 2026-05-06 10:12 | 49.34415 | 2.61923 | 15686 ft | 379 kts | 340° |
| 2026-05-06 10:12 | 49.36908 | 2.60521 | 16296 ft | 384 kts | 340° |
| 2026-05-06 10:12 | 49.39428 | 2.59102 | 16889 ft | 388 kts | 340° |
| 2026-05-06 10:12 | 49.41974 | 2.57668 | 17496 ft | 392 kts | 340° |
| 2026-05-06 10:13 | 49.44545 | 2.56217 | 18120 ft | 395 kts | 340° |
| 2026-05-06 10:13 | 49.47141 | 2.54750 | 18642 ft | 399 kts | 340° |
| 2026-05-06 10:13 | 49.49760 | 2.53269 | 19173 ft | 402 kts | 340° |
| 2026-05-06 10:13 | 49.52393 | 2.51779 | 19711 ft | 405 kts | 340° |
| 2026-05-06 10:14 | 49.55045 | 2.50275 | 20231 ft | 408 kts | 340° |
| 2026-05-06 10:14 | 49.57718 | 2.48759 | 20720 ft | 411 kts | 340° |
| 2026-05-06 10:14 | 49.60417 | 2.47225 | 21208 ft | 415 kts | 340° |
| 2026-05-06 10:14 | 49.63137 | 2.45678 | 21705 ft | 418 kts | 340° |
| 2026-05-06 10:15 | 49.65873 | 2.44119 | 22177 ft | 421 kts | 340° |
| 2026-05-06 10:15 | 49.68634 | 2.42545 | 22612 ft | 425 kts | 340° |
| 2026-05-06 10:15 | 49.71425 | 2.40950 | 23030 ft | 429 kts | 340° |
| 2026-05-06 10:15 | 49.74238 | 2.39342 | 23468 ft | 433 kts | 340° |
| 2026-05-06 10:16 | 49.77069 | 2.37722 | 23847 ft | 435 kts | 340° |
| 2026-05-06 10:16 | 49.79918 | 2.36089 | 24222 ft | 438 kts | 340° |
| 2026-05-06 10:16 | 49.82784 | 2.34437 | 24610 ft | 440 kts | 340° |
| 2026-05-06 10:16 | 49.85654 | 2.32777 | 25007 ft | 442 kts | 340° |
| 2026-05-06 10:17 | 49.88544 | 2.31102 | 25339 ft | 445 kts | 340° |
| 2026-05-06 10:17 | 49.91456 | 2.29413 | 25666 ft | 448 kts | 340° |
| 2026-05-06 10:17 | 49.94374 | 2.27718 | 26047 ft | 449 kts | 340° |
| 2026-05-06 10:17 | 49.97310 | 2.26011 | 26392 ft | 451 kts | 340° |
| 2026-05-06 10:18 | 50.00258 | 2.24295 | 26713 ft | 454 kts | 339° |
| 2026-05-06 10:18 | 50.03224 | 2.22566 | 27006 ft | 457 kts | 339° |
| 2026-05-06 10:18 | 50.06205 | 2.20827 | 27327 ft | 459 kts | 339° |
| 2026-05-06 10:18 | 50.09197 | 2.19079 | 27668 ft | 460 kts | 339° |
| 2026-05-06 10:19 | 50.12202 | 2.17320 | 27986 ft | 462 kts | 339° |
| 2026-05-06 10:19 | 50.15214 | 2.15556 | 28384 ft | 462 kts | 339° |
| 2026-05-06 10:19 | 50.18215 | 2.13795 | 28833 ft | 461 kts | 339° |
| 2026-05-06 10:19 | 50.21207 | 2.12038 | 29318 ft | 459 kts | 339° |
| 2026-05-06 10:20 | 50.24188 | 2.10284 | 29784 ft | 457 kts | 339° |
| 2026-05-06 10:20 | 50.27171 | 2.08527 | 29913 ft | 461 kts | 339° |
| 2026-05-06 10:20 | 50.33247 | 2.04941 | 29928 ft | 472 kts | 339° |
| 2026-05-06 10:21 | 50.38378 | 2.00982 | 29927 ft | 476 kts | 325° |
| 2026-05-06 10:21 | 50.43442 | 1.94375 | 29930 ft | 472 kts | 317° |
| 2026-05-06 10:22 | 50.48334 | 1.87505 | 29941 ft | 474 kts | 317° |
| 2026-05-06 10:22 | 50.53274 | 1.80675 | 29927 ft | 471 kts | 318° |
| 2026-05-06 10:23 | 50.58226 | 1.73887 | 29941 ft | 473 kts | 318° |
| 2026-05-06 10:23 | 50.63139 | 1.67137 | 29941 ft | 471 kts | 318° |
| 2026-05-06 10:24 | 50.68091 | 1.60304 | 29944 ft | 474 kts | 317° |
| 2026-05-06 10:24 | 50.73029 | 1.53467 | 29936 ft | 472 kts | 317° |
| 2026-05-06 10:25 | 50.77960 | 1.46620 | 29948 ft | 473 kts | 317° |
| 2026-05-06 10:25 | 50.82888 | 1.39766 | 29944 ft | 469 kts | 317° |
| 2026-05-06 10:26 | 50.87798 | 1.32924 | 29968 ft | 473 kts | 317° |
| 2026-05-06 10:26 | 50.92736 | 1.26020 | 29954 ft | 471 kts | 317° |
| 2026-05-06 10:27 | 50.97619 | 1.19170 | 29967 ft | 470 kts | 317° |
| 2026-05-06 10:27 | 51.02538 | 1.12249 | 29969 ft | 473 kts | 316° |
| 2026-05-06 10:28 | 51.06649 | 1.04211 | 29981 ft | 470 kts | 298° |
| 2026-05-06 10:28 | 51.09204 | 0.94642 | 29977 ft | 473 kts | 287° |
| 2026-05-06 10:29 | 51.11278 | 0.84712 | 29957 ft | 473 kts | 286° |
| 2026-05-06 10:29 | 51.13376 | 0.74783 | 30024 ft | 473 kts | 287° |
| 2026-05-06 10:30 | 51.15508 | 0.64865 | 30049 ft | 473 kts | 287° |
| 2026-05-06 10:30 | 51.17639 | 0.54960 | 30075 ft | 472 kts | 287° |
| 2026-05-06 10:31 | 51.19756 | 0.45069 | 30071 ft | 472 kts | 287° |
| 2026-05-06 10:31 | 51.21076 | 0.38924 | 30076 ft | 471 kts | 287° |
| 2026-05-06 10:32 | 51.23261 | 0.29072 | 30071 ft | 471 kts | 287° |
| 2026-05-06 10:32 | 51.25450 | 0.19230 | 29994 ft | 471 kts | 287° |
| 2026-05-06 10:33 | 51.27623 | 0.09375 | 29995 ft | 470 kts | 287° |
| 2026-05-06 10:33 | 51.29783 | -0.00502 | 29996 ft | 470 kts | 287° |
| 2026-05-06 10:34 | 51.31929 | -0.10374 | 29992 ft | 470 kts | 287° |
| 2026-05-06 10:34 | 51.34066 | -0.20252 | 29994 ft | 470 kts | 287° |
| 2026-05-06 10:35 | 51.36196 | -0.30146 | 29985 ft | 471 kts | 287° |
| 2026-05-06 10:35 | 51.38320 | -0.40056 | 30000 ft | 471 kts | 287° |
| 2026-05-06 10:36 | 51.40438 | -0.49987 | 29989 ft | 472 kts | 287° |
| 2026-05-06 10:36 | 51.42534 | -0.59861 | 29998 ft | 472 kts | 287° |
| 2026-05-06 10:37 | 51.44637 | -0.69819 | 29991 ft | 471 kts | 287° |
| 2026-05-06 10:37 | 51.46729 | -0.79773 | 29993 ft | 471 kts | 287° |
| 2026-05-06 10:38 | 51.48826 | -0.89800 | 30011 ft | 470 kts | 287° |
| 2026-05-06 10:38 | 51.50883 | -0.99688 | 30023 ft | 470 kts | 286° |
| 2026-05-06 10:39 | 51.52943 | -1.09639 | 30014 ft | 469 kts | 286° |
| 2026-05-06 10:39 | 51.54993 | -1.19586 | 30024 ft | 469 kts | 286° |
| 2026-05-06 10:40 | 51.57031 | -1.29532 | 30021 ft | 468 kts | 286° |
| 2026-05-06 10:40 | 51.59074 | -1.39550 | 30017 ft | 468 kts | 286° |
| 2026-05-06 10:41 | 51.61079 | -1.49427 | 30012 ft | 467 kts | 286° |
| 2026-05-06 10:41 | 51.63085 | -1.59364 | 30027 ft | 467 kts | 286° |
| 2026-05-06 10:42 | 51.65081 | -1.69302 | 30021 ft | 467 kts | 286° |
| 2026-05-06 10:42 | 51.67069 | -1.79249 | 30029 ft | 466 kts | 286° |
| 2026-05-06 10:43 | 51.69057 | -1.89249 | 30026 ft | 466 kts | 286° |
| 2026-05-06 10:44 | 51.71992 | -2.04099 | 30030 ft | 465 kts | 286° |
| 2026-05-06 10:44 | 51.73627 | -2.12428 | 30039 ft | 465 kts | 286° |
| 2026-05-06 10:45 | 51.75886 | -2.23987 | 30050 ft | 465 kts | 285° |
| 2026-05-06 10:45 | 51.77818 | -2.33935 | 30044 ft | 465 kts | 285° |
| 2026-05-06 10:46 | 51.79744 | -2.43903 | 30047 ft | 465 kts | 285° |
| 2026-05-06 10:46 | 51.81661 | -2.53876 | 30045 ft | 465 kts | 285° |
| 2026-05-06 10:47 | 51.82984 | -2.62386 | 30045 ft | 465 kts | 281° |
| 2026-05-06 10:47 | 51.84307 | -2.72616 | 30044 ft | 465 kts | 280° |
| 2026-05-06 10:48 | 51.85623 | -2.82859 | 30041 ft | 466 kts | 280° |
| 2026-05-06 10:48 | 51.86964 | -2.93048 | 30045 ft | 466 kts | 281° |
| 2026-05-06 10:49 | 51.88323 | -3.03315 | 30042 ft | 467 kts | 281° |
| 2026-05-06 10:49 | 51.89676 | -3.13598 | 30043 ft | 468 kts | 281° |
| 2026-05-06 10:50 | 51.91020 | -3.23911 | 30044 ft | 469 kts | 281° |
| 2026-05-06 10:50 | 51.92366 | -3.34319 | 30032 ft | 470 kts | 281° |
| 2026-05-06 10:51 | 51.93690 | -3.44621 | 30036 ft | 470 kts | 281° |
| 2026-05-06 10:51 | 51.95016 | -3.55015 | 30026 ft | 472 kts | 281° |
| 2026-05-06 10:52 | 51.96341 | -3.65439 | 30030 ft | 473 kts | 282° |
| 2026-05-06 10:52 | 51.97664 | -3.75902 | 30024 ft | 474 kts | 282° |
| 2026-05-06 10:53 | 51.98977 | -3.86365 | 30033 ft | 475 kts | 282° |
| 2026-05-06 10:53 | 52.00287 | -3.96886 | 30016 ft | 476 kts | 282° |
| 2026-05-06 10:54 | 52.01587 | -4.07415 | 30021 ft | 477 kts | 282° |
| 2026-05-06 10:54 | 52.02886 | -4.18017 | 30022 ft | 479 kts | 282° |
| 2026-05-06 10:55 | 52.04175 | -4.28621 | 30023 ft | 479 kts | 282° |
| 2026-05-06 10:55 | 52.05456 | -4.39243 | 30023 ft | 477 kts | 282° |
| 2026-05-06 10:55 | 52.06079 | -4.44455 | 29999 ft | 460 kts | 282° |
| 2026-05-06 10:56 | 52.06674 | -4.49455 | 30001 ft | 443 kts | 282° |
| 2026-05-06 10:56 | 52.07839 | -4.59255 | 30027 ft | 437 kts | 282° |
| 2026-05-06 10:57 | 52.08972 | -4.68872 | 30014 ft | 421 kts | 282° |
| 2026-05-06 10:57 | 52.09509 | -4.73457 | 30007 ft | 406 kts | 282° |
| 2026-05-06 10:57 | 52.10026 | -4.77886 | 30001 ft | 392 kts | 282° |
| 2026-05-06 10:57 | 52.10525 | -4.82171 | 30013 ft | 378 kts | 282° |
| 2026-05-06 10:58 | 52.11006 | -4.86299 | 30007 ft | 365 kts | 282° |
| 2026-05-06 10:58 | 52.11467 | -4.90286 | 30001 ft | 353 kts | 282° |
| 2026-05-06 10:58 | 52.11914 | -4.94161 | 29760 ft | 347 kts | 282° |
| 2026-05-06 10:58 | 52.12366 | -4.98090 | 28679 ft | 363 kts | 282° |
| 2026-05-06 10:59 | 52.12843 | -5.02270 | 27257 ft | 388 kts | 281° |
| 2026-05-06 10:59 | 52.13345 | -5.06702 | 26084 ft | 405 kts | 280° |
| 2026-05-06 10:59 | 52.13940 | -5.11205 | 25443 ft | 406 kts | 289° |
| 2026-05-06 10:59 | 52.15262 | -5.15215 | 25012 ft | 402 kts | 307° |
| 2026-05-06 11:00 | 52.17230 | -5.18397 | 24607 ft | 398 kts | 324° |
| 2026-05-06 11:00 | 52.19617 | -5.20636 | 24156 ft | 395 kts | 332° |
| 2026-05-06 11:00 | 52.22079 | -5.22619 | 23649 ft | 394 kts | 333° |
| 2026-05-06 11:00 | 52.24543 | -5.24558 | 23080 ft | 392 kts | 333° |
| 2026-05-06 11:01 | 52.26983 | -5.26497 | 22592 ft | 388 kts | 332° |
| 2026-05-06 11:01 | 52.29390 | -5.28441 | 22108 ft | 384 kts | 332° |
| 2026-05-06 11:01 | 52.31761 | -5.30382 | 21637 ft | 380 kts | 332° |
| 2026-05-06 11:01 | 52.34113 | -5.32322 | 21159 ft | 377 kts | 332° |
| 2026-05-06 11:02 | 52.36445 | -5.34252 | 20701 ft | 374 kts | 332° |
| 2026-05-06 11:02 | 52.38758 | -5.36167 | 20240 ft | 371 kts | 332° |
| 2026-05-06 11:02 | 52.41022 | -5.38045 | 19781 ft | 368 kts | 332° |
| 2026-05-06 11:02 | 52.43297 | -5.39931 | 19348 ft | 365 kts | 332° |
| 2026-05-06 11:03 | 52.45557 | -5.41806 | 18909 ft | 363 kts | 332° |
| 2026-05-06 11:03 | 52.47801 | -5.43670 | 18454 ft | 361 kts | 332° |
| 2026-05-06 11:03 | 52.50033 | -5.45526 | 17982 ft | 358 kts | 332° |
| 2026-05-06 11:03 | 52.52279 | -5.47395 | 17506 ft | 355 kts | 332° |
| 2026-05-06 11:04 | 52.54445 | -5.49200 | 17057 ft | 352 kts | 332° |
| 2026-05-06 11:04 | 52.56704 | -5.50855 | 16604 ft | 350 kts | 339° |
| 2026-05-06 11:04 | 52.59015 | -5.52075 | 16175 ft | 348 kts | 342° |
| 2026-05-06 11:04 | 52.61333 | -5.53170 | 15745 ft | 345 kts | 342° |
| 2026-05-06 11:05 | 52.63631 | -5.54261 | 15296 ft | 343 kts | 342° |
| 2026-05-06 11:05 | 52.65903 | -5.55381 | 14882 ft | 340 kts | 342° |
| 2026-05-06 11:05 | 52.68155 | -5.56523 | 14468 ft | 337 kts | 341° |
| 2026-05-06 11:05 | 52.70388 | -5.57668 | 14066 ft | 334 kts | 341° |
| 2026-05-06 11:06 | 52.72600 | -5.58809 | 13645 ft | 332 kts | 341° |
| 2026-05-06 11:06 | 52.74792 | -5.59949 | 13218 ft | 329 kts | 341° |
| 2026-05-06 11:06 | 52.76965 | -5.61082 | 12766 ft | 327 kts | 341° |
| 2026-05-06 11:06 | 52.79127 | -5.62210 | 12327 ft | 324 kts | 341° |
| 2026-05-06 11:07 | 52.81267 | -5.63326 | 11926 ft | 321 kts | 341° |
| 2026-05-06 11:07 | 52.83392 | -5.64436 | 11479 ft | 320 kts | 341° |
| 2026-05-06 11:07 | 52.85495 | -5.65535 | 11242 ft | 312 kts | 341° |
| 2026-05-06 11:07 | 52.87521 | -5.66595 | 11171 ft | 299 kts | 342° |
| 2026-05-06 11:08 | 52.89470 | -5.67615 | 11078 ft | 288 kts | 341° |
| 2026-05-06 11:08 | 52.91350 | -5.68600 | 10980 ft | 278 kts | 341° |
| 2026-05-06 11:08 | 52.93173 | -5.69557 | 10736 ft | 274 kts | 341° |
| 2026-05-06 11:08 | 52.94986 | -5.70510 | 10474 ft | 271 kts | 342° |
| 2026-05-06 11:09 | 52.96769 | -5.71447 | 10255 ft | 267 kts | 341° |
| 2026-05-06 11:09 | 52.98533 | -5.72375 | 9959 ft | 266 kts | 342° |
| 2026-05-06 11:09 | 53.00277 | -5.73294 | 9655 ft | 265 kts | 342° |
| 2026-05-06 11:09 | 53.02026 | -5.74215 | 9357 ft | 263 kts | 342° |
| 2026-05-06 11:10 | 53.03767 | -5.75134 | 9040 ft | 262 kts | 342° |
| 2026-05-06 11:10 | 53.05500 | -5.76048 | 8748 ft | 261 kts | 342° |
| 2026-05-06 11:10 | 53.07226 | -5.76959 | 8435 ft | 260 kts | 342° |
| 2026-05-06 11:10 | 53.08947 | -5.77869 | 8156 ft | 258 kts | 342° |
| 2026-05-06 11:11 | 53.10638 | -5.78764 | 7983 ft | 252 kts | 342° |
| 2026-05-06 11:11 | 53.12314 | -5.79461 | 7802 ft | 247 kts | 358° |
| 2026-05-06 11:11 | 53.13954 | -5.78878 | 7695 ft | 241 kts | 25° |
| 2026-05-06 11:11 | 53.15268 | -5.77194 | 7507 ft | 239 kts | 49° |
| 2026-05-06 11:12 | 53.16190 | -5.74886 | 7246 ft | 239 kts | 58° |
| 2026-05-06 11:12 | 53.16997 | -5.72464 | 7085 ft | 239 kts | 59° |
| 2026-05-06 11:12 | 53.17803 | -5.70028 | 7052 ft | 242 kts | 59° |
| 2026-05-06 11:12 | 53.18627 | -5.67567 | 7042 ft | 242 kts | 58° |
| 2026-05-06 11:13 | 53.19449 | -5.65133 | 7032 ft | 240 kts | 57° |
| 2026-05-06 11:13 | 53.20531 | -5.63096 | 7022 ft | 233 kts | 33° |
| 2026-05-06 11:13 | 53.22073 | -5.62231 | 6724 ft | 239 kts | 359° |
| 2026-05-06 11:13 | 53.23659 | -5.62922 | 6513 ft | 238 kts | 329° |
| 2026-05-06 11:14 | 53.24892 | -5.64677 | 6298 ft | 230 kts | 314° |
| 2026-05-06 11:14 | 53.25942 | -5.66658 | 6075 ft | 226 kts | 312° |
| 2026-05-06 11:14 | 53.26955 | -5.68653 | 5818 ft | 227 kts | 311° |
| 2026-05-06 11:14 | 53.27995 | -5.70700 | 5412 ft | 235 kts | 312° |
| 2026-05-06 11:15 | 53.29056 | -5.72775 | 5043 ft | 240 kts | 312° |
| 2026-05-06 11:15 | 53.30150 | -5.74905 | 4661 ft | 243 kts | 312° |
| 2026-05-06 11:15 | 53.31264 | -5.77066 | 4267 ft | 247 kts | 312° |
| 2026-05-06 11:15 | 53.32393 | -5.79252 | 3878 ft | 250 kts | 312° |
| 2026-05-06 11:16 | 53.33525 | -5.81442 | 3491 ft | 247 kts | 312° |
| 2026-05-06 11:16 | 53.34638 | -5.83598 | 3091 ft | 243 kts | 312° |
| 2026-05-06 11:16 | 53.35713 | -5.85672 | 3010 ft | 229 kts | 312° |
| 2026-05-06 11:16 | 53.36741 | -5.87657 | 3011 ft | 224 kts | 313° |
| 2026-05-06 11:17 | 53.37750 | -5.89605 | 3019 ft | 221 kts | 313° |
| 2026-05-06 11:17 | 53.38760 | -5.91558 | 3013 ft | 222 kts | 312° |
| 2026-05-06 11:17 | 53.39740 | -5.93533 | 3002 ft | 220 kts | 304° |
| 2026-05-06 11:17 | 53.40212 | -5.95961 | 3020 ft | 220 kts | 283° |
| 2026-05-06 11:18 | 53.40519 | -5.98473 | 2999 ft | 217 kts | 283° |
| 2026-05-06 11:18 | 53.40726 | -6.00857 | 2970 ft | 195 kts | 278° |
| 2026-05-06 11:18 | 53.40850 | -6.03044 | 2801 ft | 183 kts | 277° |
| 2026-05-06 11:18 | 53.40958 | -6.05112 | 2592 ft | 173 kts | 277° |
| 2026-05-06 11:19 | 53.41060 | -6.07072 | 2359 ft | 166 kts | 277° |
| 2026-05-06 11:19 | 53.41161 | -6.08979 | 2124 ft | 163 kts | 278° |
| 2026-05-06 11:19 | 53.41257 | -6.10792 | 1912 ft | 150 kts | 278° |
| 2026-05-06 11:19 | 53.41349 | -6.12516 | 1715 ft | 148 kts | 278° |
| 2026-05-06 11:20 | 53.41443 | -6.14252 | 1484 ft | 151 kts | 278° |
| 2026-05-06 11:20 | 53.41536 | -6.15999 | 1292 ft | 151 kts | 278° |
| 2026-05-06 11:20 | 53.41631 | -6.17744 | 1075 ft | 150 kts | 277° |
| 2026-05-06 11:20 | 53.41732 | -6.19495 | 945 ft | 152 kts | 277° |
| 2026-05-06 11:21 | 53.41818 | -6.21256 | 739 ft | 152 kts | 276° |
| 2026-05-06 11:21 | 53.41907 | -6.23024 | 523 ft | 156 kts | 277° |
| 2026-05-06 11:21 | 53.42015 | -6.24839 | 281 ft | 152 kts | 276° |
| 2026-05-06 11:21 | 53.42108 | -6.26501 | 210 ft | 128 kts | 276° |
| 2026-05-06 11:22 | 53.42175 | -6.27695 | 209 ft | 53 kts | 279° |
| 2026-05-06 11:22 | 53.42277 | -6.28060 | 215 ft | 23 kts | 308° |
| 2026-05-06 11:22 | 53.42360 | -6.28021 | 210 ft | 17 kts | 89° |
| 2026-05-06 11:22 | 53.42351 | -6.27820 | 214 ft | 18 kts | 95° |
| 2026-05-06 11:23 | 53.42337 | -6.27613 | 216 ft | 18 kts | 97° |
| 2026-05-06 11:23 | 53.42325 | -6.27401 | 210 ft | 18 kts | 94° |
| 2026-05-06 11:23 | 53.42316 | -6.27191 | 210 ft | 18 kts | 94° |
| 2026-05-06 11:23 | 53.42304 | -6.26964 | 213 ft | 24 kts | 95° |
| 2026-05-06 11:24 | 53.42287 | -6.26668 | 210 ft | 25 kts | 95° |
| 2026-05-06 11:24 | 53.42273 | -6.26428 | 216 ft | 16 kts | 96° |
| 2026-05-06 11:24 | 53.42266 | -6.26247 | 215 ft | 15 kts | 85° |
| 2026-05-06 11:24 | 53.42309 | -6.26086 | 213 ft | 15 kts | 50° |
| 2026-05-06 11:25 | 53.42385 | -6.25950 | 210 ft | 18 kts | 46° |
| 2026-05-06 11:25 | 53.42475 | -6.25887 | 212 ft | 15 kts | 327° |
| 2026-05-06 11:25 | 53.42504 | -6.26030 | 213 ft | 13 kts | 275° |
| 2026-05-06 11:25 | 53.42513 | -6.26208 | 213 ft | 18 kts | 275° |
| 2026-05-06 11:26 | 53.42520 | -6.26381 | 217 ft | 13 kts | 266° |
| 2026-05-06 11:26 | 53.42465 | -6.26454 | 218 ft | 7 kts | 187° |
| 2026-05-06 11:26 | 53.42436 | -6.26460 | 214 ft | 3 kts | 186° |
| 2026-05-06 11:26 | 53.42431 | -6.26460 | 213 ft | 0 kts | 186° |